Madison Heights, VA (24572)

6:30 AM EST on January 26, 2015 (GMT -0500)
Concord Turnpike | Change Station
CLOSE
Current Station
Personal Weather Station
Location: Lynchburg, VA
Elevation: 515 ft
Nearby Weather Stations

Elev 515 ft 37.40 °N, 79.11 °W | Updated 2 minutes ago

Overcast
Overcast
39.7 °F
Feels Like 40 °F
N
0.8
Wind Variable Wind from West
Gusts 2.1 mph

Today
High -- | Low -- °F
--% Chance of Precip.
Yesterday
High -- | Low -- °F
Precip. -- in
7:24 AM 5:33 PM
Waxing Crescent, 42% visible
Pressure 29.69 in
Visibility 10.0 miles
Clouds Few 3000 ft
Scattered Clouds 6500 ft
Overcast 8000 ft
Windchill 40 °F
Dew Point 36 °F
Humidity 88%
Rainfall 0.02 in
Snow Depth Not available.
UV 0 out of 12
Pollen 1.40 out of 12
Air Quality Not available.
Flu Activity Not available.
METAR KLYH 261054Z AUTO 02005KT 10SM FEW030 SCT065 OVC080 03/03 A2968 RMK AO2 SLP053 T00330028

More Conditions Fewer Conditions

Pressure 29.69 in
Visibility 10.0 miles
Clouds Few 3000 ft
Scattered Clouds 6500 ft
Overcast 8000 ft
Windchill 40 °F
Dew Point 36 °F
Humidity 88%
Rainfall 0.02 in
Snow Depth Not available.
UV 0 out of 12
Pollen 1.40 out of 12
Air Quality Not available.
Flu Activity Not available.
METAR KLYH 261054Z AUTO 02005KT 10SM FEW030 SCT065 OVC080 03/03 A2968 RMK AO2 SLP053 T00330028

More Conditions Fewer Conditions

10-Day Weather Forecast

Almanac

Astronomy

Jan. 26, 2015 Rise Set
Actual Time
Civil Twilight
Nautical Twilight
Astronomical Twilight
Moon
Length of Visible Light
Length of Day
Tomorrow will be .
, % of the Moon is Illuminated

Today's Extremes

State Highs State Lows

Community

WunderPhotos

Upload Photos

1,790,172 photos uploaded!

WunderBlogs® & News

Nearby

Air Quality

  Air Quality AQ Index Pollutant
Not available.

Snow Depth

Station Depth Elevation

Earthquake Activity

City Distance Mag. Time & Date
Minimum magnitude displayed is 2.5.

Coastal Water Temperatures

Place Temperature

Nearby Weather Stations